createdAt,value
2023-05-17T00:00:09.682Z,150746.25
2023-05-17T00:02:35.938Z,150762.69
2023-05-17T00:05:02.732Z,150732.34
2023-05-17T00:07:28.630Z,150738.66
2023-05-17T00:09:54.590Z,150777.84
2023-05-17T00:12:20.498Z,150757.66
2023-05-17T00:14:46.469Z,150787.94
2023-05-17T00:17:16.095Z,150790.47
2023-05-17T00:19:41.964Z,150809.41
2023-05-17T00:22:08.080Z,150790.47
2023-05-17T00:24:33.960Z,150794.28
2023-05-17T00:26:59.875Z,150777.84
2023-05-17T00:29:25.727Z,150789.19
2023-05-17T00:31:51.652Z,150774.03
2023-05-17T00:34:17.907Z,150795.53
2023-05-17T00:36:43.882Z,150785.41
2023-05-17T00:39:09.914Z,150760.16
2023-05-17T00:41:36.424Z,150752.56
2023-05-17T00:44:02.404Z,150780.38
2023-05-17T00:46:28.390Z,150804.38
2023-05-17T00:48:55.247Z,150786.69
2023-05-17T00:51:22.105Z,150780.38
2023-05-17T00:53:48.222Z,150722.28
2023-05-17T00:56:14.179Z,150724.78
2023-05-17T00:58:40.294Z,150702.03
2023-05-17T01:01:06.760Z,150689.41
2023-05-17T01:03:32.788Z,150693.19
2023-05-17T01:05:58.775Z,150712.16
2023-05-17T01:08:24.829Z,150704.59
2023-05-17T01:11:19.328Z,150704.59
2023-05-17T01:13:55.250Z,150708.38
2023-05-17T01:16:35.589Z,150684.34
2023-05-17T01:19:39.837Z,150690.69
2023-05-17T01:22:30.956Z,150707.09
2023-05-17T01:25:23.862Z,150693.19
2023-05-17T01:27:50.381Z,150690.69
2023-05-17T01:30:19.189Z,150717.19
2023-05-17T01:32:45.208Z,150708.38
2023-05-17T01:35:11.817Z,150676.78
2023-05-17T01:37:41.129Z,150700.75
2023-05-17T01:40:08.532Z,150691.94
2023-05-17T01:42:39.869Z,150707.09
2023-05-17T01:45:26.070Z,150710.88
2023-05-17T01:48:04.304Z,150714.66
2023-05-17T01:50:33.132Z,150713.41
2023-05-17T01:53:04.971Z,150732.34
2023-05-17T01:55:38.685Z,150722.28
2023-05-17T01:58:08.356Z,150676.78
2023-05-17T02:00:35.625Z,150662.88
2023-05-17T02:03:02.186Z,150673.00
2023-05-17T02:05:28.295Z,150679.28
2023-05-17T02:07:54.263Z,150673.00
2023-05-17T02:10:20.152Z,150671.75
2023-05-17T02:12:45.984Z,150670.47
2023-05-17T02:15:13.007Z,150683.06
2023-05-17T02:17:39.936Z,150664.13
2023-05-17T02:20:07.713Z,150669.22
2023-05-17T02:22:33.653Z,150684.34
2023-05-17T02:24:59.605Z,150674.25
2023-05-17T02:27:25.632Z,150676.78
2023-05-17T02:29:51.507Z,150666.66
2023-05-17T02:32:17.432Z,150680.56
2023-05-17T02:34:43.321Z,150671.75
2023-05-17T02:37:09.411Z,150681.81
2023-05-17T02:39:35.279Z,150678.03
2023-05-17T02:42:01.229Z,150686.91
2023-05-17T02:44:27.063Z,150709.63
2023-05-17T02:46:53.059Z,150714.66
2023-05-17T02:49:18.962Z,150695.72
2023-05-17T02:51:44.945Z,150686.91
2023-05-17T02:54:10.854Z,150690.69
2023-05-17T02:56:36.695Z,150676.78
2023-05-17T02:59:02.648Z,150678.03
2023-05-17T03:01:28.647Z,150676.78
2023-05-17T03:03:54.860Z,150680.56
2023-05-17T03:06:21.492Z,150664.13
2023-05-17T03:08:47.332Z,150661.59
2023-05-17T03:11:13.261Z,150691.94
2023-05-17T03:13:39.139Z,150717.19
2023-05-17T03:16:05.306Z,150700.75
2023-05-17T03:18:31.297Z,150710.88
2023-05-17T03:20:57.335Z,150726.06
2023-05-17T03:23:23.288Z,150737.38
2023-05-17T03:25:49.285Z,150698.25
2023-05-17T03:28:15.099Z,150688.16
2023-05-17T03:30:41.109Z,150673.00
2023-05-17T03:33:07.171Z,150667.97
2023-05-17T03:35:33.486Z,150700.75
2023-05-17T03:37:59.645Z,150702.03
2023-05-17T03:40:25.597Z,150707.09
2023-05-17T03:42:51.973Z,150696.97
2023-05-17T03:45:17.836Z,150713.41
2023-05-17T03:47:43.749Z,150719.69
2023-05-17T03:50:10.358Z,150684.34
2023-05-17T03:52:36.276Z,150695.72
2023-05-17T03:55:02.372Z,150739.97
2023-05-17T03:57:28.169Z,150705.84
2023-05-17T03:59:54.156Z,150688.16
2023-05-17T04:02:20.080Z,150708.38
2023-05-17T04:04:49.798Z,150717.19
2023-05-17T04:07:16.642Z,150736.13
2023-05-17T04:09:42.623Z,150724.78
2023-05-17T04:12:10.169Z,150726.06
2023-05-17T04:14:37.793Z,150708.38
2023-05-17T04:17:03.687Z,150679.28
2023-05-17T04:19:30.315Z,150699.50
2023-05-17T04:21:56.297Z,150686.91
2023-05-17T04:24:22.112Z,150695.72
2023-05-17T04:26:47.938Z,150698.25
2023-05-17T04:29:13.909Z,150685.59
2023-05-17T04:31:39.828Z,150685.59
2023-05-17T04:34:05.783Z,150700.75
2023-05-17T04:36:31.802Z,150691.94
2023-05-17T04:38:57.649Z,150662.88
2023-05-17T04:41:23.524Z,150694.47
2023-05-17T04:43:49.377Z,150698.25
2023-05-17T04:46:15.237Z,150705.84
2023-05-17T04:48:41.572Z,150712.16
2023-05-17T04:51:07.641Z,150715.94
2023-05-17T04:53:33.893Z,150717.19
2023-05-17T04:55:59.786Z,150719.69
2023-05-17T04:58:25.889Z,150737.38
2023-05-17T05:00:52.031Z,150704.59
2023-05-17T05:03:18.277Z,150712.16
2023-05-17T05:05:44.291Z,150714.66
2023-05-17T05:08:10.445Z,150656.56
2023-05-17T05:10:36.376Z,150681.81
2023-05-17T05:13:02.268Z,150654.06
2023-05-17T05:15:28.454Z,150669.22
2023-05-17T05:17:54.645Z,150676.78
2023-05-17T05:20:20.671Z,150648.97
2023-05-17T05:22:46.745Z,150647.72
2023-05-17T05:25:12.713Z,150642.66
2023-05-17T05:27:38.897Z,150648.97
2023-05-17T05:30:05.416Z,150656.56
2023-05-17T05:32:31.387Z,150675.53
2023-05-17T05:34:57.324Z,150700.75
2023-05-17T05:37:23.314Z,150698.25
2023-05-17T05:39:49.168Z,150722.28
2023-05-17T05:42:15.066Z,150704.59
2023-05-17T05:44:40.983Z,150736.13
2023-05-17T05:47:06.839Z,150719.69
2023-05-17T05:49:33.031Z,150678.03
2023-05-17T05:51:59.202Z,150699.50
2023-05-17T05:54:25.166Z,150694.47
2023-05-17T05:56:51.096Z,150720.97
2023-05-17T05:59:17.268Z,150741.22
2023-05-17T06:01:43.406Z,150723.53
2023-05-17T06:04:09.256Z,150747.50
2023-05-17T06:06:35.269Z,150766.47
2023-05-17T06:09:01.542Z,150762.69
2023-05-17T06:11:27.459Z,150790.47
2023-05-17T06:13:53.350Z,150800.59
2023-05-17T06:16:19.237Z,150795.53
2023-05-17T06:18:45.177Z,150757.66
2023-05-17T06:21:14.640Z,150776.59
2023-05-17T06:23:40.857Z,150827.09
2023-05-17T06:26:09.845Z,150790.47
2023-05-17T06:28:36.708Z,150774.03
2023-05-17T06:31:02.940Z,150781.63
2023-05-17T06:33:28.856Z,150796.81
2023-05-17T06:35:57.488Z,150844.78
2023-05-17T06:38:24.565Z,150901.75
2023-05-17T06:40:54.688Z,150964.94
2023-05-17T06:43:21.834Z,150920.69
2023-05-17T06:45:47.701Z,150944.72
2023-05-17T06:48:13.710Z,150969.97
2023-05-17T06:50:39.736Z,150958.63
2023-05-17T06:53:05.663Z,150939.66
2023-05-17T06:55:31.980Z,151000.31
2023-05-17T06:57:59.494Z,150983.88
2023-05-17T07:00:25.733Z,151007.91
2023-05-17T07:02:51.768Z,151057.22
2023-05-17T07:05:17.824Z,151018.03
2023-05-17T07:07:43.820Z,151021.81
2023-05-17T07:10:10.193Z,151014.25
2023-05-17T07:12:38.295Z,150961.16
2023-05-17T07:15:04.696Z,150964.94
2023-05-17T07:17:30.580Z,150981.38
2023-05-17T07:19:56.940Z,150991.50
2023-05-17T07:22:22.910Z,151052.19
2023-05-17T07:24:48.838Z,151021.81
2023-05-17T07:27:14.776Z,151055.94
2023-05-17T07:29:44.844Z,151100.25
2023-05-17T07:32:12.411Z,151141.97
2023-05-17T07:34:38.265Z,151143.22
2023-05-17T07:37:04.850Z,151116.63
2023-05-17T07:39:31.172Z,151082.53
2023-05-17T07:41:57.129Z,151153.38
2023-05-17T07:44:23.016Z,151167.25
2023-05-17T07:46:49.215Z,151174.84
2023-05-17T07:49:15.259Z,151174.84
2023-05-17T07:51:41.290Z,151229.25
2023-05-17T07:54:07.234Z,151248.22
2023-05-17T07:56:33.144Z,151277.31
2023-05-17T07:58:59.846Z,151179.91
2023-05-17T08:01:26.173Z,151195.09
2023-05-17T08:03:52.079Z,151197.63
2023-05-17T08:06:18.051Z,151233.03
2023-05-17T08:08:44.367Z,151282.41
2023-05-17T08:11:14.693Z,151282.41
2023-05-17T08:13:43.314Z,151258.31
2023-05-17T08:16:14.251Z,151340.59
2023-05-17T08:18:42.012Z,151363.41
2023-05-17T08:21:09.092Z,151355.84
2023-05-17T08:23:34.978Z,151402.66
2023-05-17T08:26:01.025Z,151320.34
2023-05-17T08:28:28.034Z,151273.50
2023-05-17T08:30:53.914Z,151191.31
2023-05-17T08:33:21.809Z,151203.91
2023-05-17T08:35:48.441Z,151195.09
2023-05-17T08:38:14.252Z,151212.81
2023-05-17T08:40:40.627Z,151258.31
2023-05-17T08:43:11.179Z,151269.72
2023-05-17T08:45:38.203Z,151345.66
2023-05-17T08:50:35.338Z,151397.59
2023-05-17T08:53:01.631Z,151425.47
2023-05-17T08:55:29.908Z,151458.34
2023-05-17T08:57:56.316Z,151382.41
2023-05-17T09:00:24.424Z,151367.19
2023-05-17T09:02:50.355Z,151446.97
2023-05-17T09:05:17.155Z,151549.53
2023-05-17T09:07:43.411Z,151639.47
2023-05-17T09:10:09.793Z,151611.59
2023-05-17T09:12:36.085Z,151616.63
2023-05-17T09:15:17.704Z,151567.28
2023-05-17T09:17:51.374Z,151512.78
2023-05-17T09:20:38.922Z,151505.19
2023-05-17T09:23:07.000Z,151505.19
2023-05-17T09:25:33.576Z,151446.97
2023-05-17T09:28:04.842Z,151400.13
2023-05-17T09:30:32.989Z,151381.13
2023-05-17T09:33:06.515Z,151348.16
2023-05-17T09:35:33.062Z,151305.16
2023-05-17T09:38:07.511Z,151357.09
2023-05-17T09:40:37.197Z,151338.06
2023-05-17T09:43:03.434Z,151460.91
2023-05-17T09:45:31.767Z,151590.06
2023-05-17T09:47:59.130Z,151662.25
2023-05-17T09:50:26.262Z,151747.16
2023-05-17T09:52:52.462Z,151775.06
2023-05-17T09:55:26.880Z,151745.84
2023-05-17T09:57:53.064Z,151661.00
2023-05-17T10:00:20.261Z,151635.63
2023-05-17T10:02:49.356Z,151584.97
2023-05-17T10:05:17.128Z,151650.84
2023-05-17T10:07:44.065Z,151673.63
2023-05-17T10:10:11.511Z,151764.91
2023-05-17T10:12:40.162Z,151730.69
2023-05-17T10:15:07.747Z,151804.22
2023-05-17T10:17:35.144Z,151887.84
2023-05-17T10:20:04.014Z,151955.03
2023-05-17T10:22:30.852Z,151988.00
2023-05-17T10:24:57.892Z,152038.75
2023-05-17T10:27:25.795Z,152116.13
2023-05-17T10:29:53.883Z,152113.63
2023-05-17T10:32:22.312Z,152064.09
2023-05-17T10:35:01.612Z,152023.53
2023-05-17T10:37:36.002Z,152070.41
2023-05-17T10:40:02.213Z,152122.47
2023-05-17T10:42:30.419Z,152112.34
2023-05-17T10:44:56.327Z,152187.19
2023-05-17T10:47:31.570Z,152267.09
2023-05-17T10:49:57.590Z,152333.09
2023-05-17T10:52:24.568Z,152324.19
2023-05-17T10:54:51.244Z,152203.69
2023-05-17T10:57:21.268Z,152185.91
2023-05-17T10:59:58.850Z,152197.31
2023-05-17T11:02:26.598Z,152175.75
2023-05-17T11:04:53.422Z,152234.09
2023-05-17T11:07:36.619Z,152183.38
2023-05-17T11:10:11.010Z,152316.59
2023-05-17T11:12:41.055Z,152429.59
2023-05-17T11:15:11.720Z,152554.03
2023-05-17T11:17:43.907Z,152688.69
2023-05-17T11:20:31.532Z,152709.06
2023-05-17T11:23:04.308Z,152551.50
2023-05-17T11:25:37.802Z,152728.13
2023-05-17T11:28:22.242Z,152878.06
2023-05-17T11:30:55.506Z,152964.50
2023-05-17T11:33:38.395Z,152921.31
2023-05-17T11:36:06.723Z,153015.44
2023-05-17T11:38:33.581Z,152822.16
2023-05-17T11:41:27.019Z,152743.38
2023-05-17T11:43:53.746Z,152764.97
2023-05-17T11:46:21.564Z,152696.34
2023-05-17T11:48:50.290Z,152608.66
2023-05-17T11:51:17.369Z,152724.31
2023-05-17T11:53:44.090Z,152935.25
2023-05-17T11:56:10.941Z,153023.03
2023-05-17T11:58:37.286Z,152984.91
2023-05-17T12:01:04.018Z,153011.63
2023-05-17T12:03:32.025Z,152883.13
2023-05-17T12:06:04.316Z,152665.78
2023-05-17T12:08:31.992Z,152607.38
2023-05-17T12:10:58.109Z,152780.22
2023-05-17T12:13:28.531Z,152733.19
2023-05-17T12:16:09.061Z,153003.97
2023-05-17T12:18:40.344Z,153108.25
2023-05-17T12:21:07.759Z,153085.38
2023-05-17T12:23:35.455Z,153020.50
2023-05-17T12:26:21.215Z,152984.91
2023-05-17T12:28:54.738Z,152810.69
2023-05-17T12:31:33.929Z,152775.09
2023-05-17T12:34:01.687Z,152795.47
2023-05-17T12:36:29.622Z,153070.09
2023-05-17T12:38:56.136Z,153112.06
2023-05-17T12:41:25.401Z,153058.63
2023-05-17T12:43:53.225Z,152790.38
2023-05-17T12:46:27.625Z,152726.84
2023-05-17T12:48:54.316Z,152682.31
2023-05-17T12:51:23.319Z,152808.16
2023-05-17T12:53:56.753Z,152828.47
2023-05-17T12:56:26.305Z,152906.06
2023-05-17T12:59:10.689Z,153034.50
2023-05-17T13:01:39.293Z,153140.06
2023-05-17T13:04:05.620Z,153206.19
2023-05-17T13:06:54.266Z,153184.56
2023-05-17T13:09:23.136Z,153280.00
2023-05-17T13:11:56.916Z,153184.56
2023-05-17T13:14:45.726Z,152876.78
2023-05-17T13:17:23.236Z,153108.25
2023-05-17T13:19:49.892Z,153226.56
2023-05-17T13:22:15.887Z,153269.84
2023-05-17T13:24:43.735Z,153379.28
2023-05-17T13:27:10.392Z,153268.59
2023-05-17T13:29:40.463Z,153211.28
2023-05-17T13:32:08.057Z,153239.31
2023-05-17T13:34:34.365Z,153197.28
2023-05-17T13:37:00.288Z,153192.22
2023-05-17T13:39:26.161Z,153118.41
2023-05-17T13:41:52.245Z,152983.63
2023-05-17T13:44:18.125Z,152819.63
2023-05-17T13:46:44.007Z,152906.06
2023-05-17T13:49:10.066Z,152968.38
2023-05-17T13:51:39.314Z,153098.06
2023-05-17T13:54:09.795Z,153246.97
2023-05-17T13:56:35.718Z,153105.72
2023-05-17T13:59:01.654Z,153189.63
2023-05-17T14:01:27.514Z,153236.78
2023-05-17T14:03:54.557Z,153310.56
2023-05-17T14:06:20.785Z,153313.09
2023-05-17T14:08:46.809Z,153283.88
2023-05-17T14:11:12.785Z,153124.78
2023-05-17T14:13:38.674Z,152940.38
2023-05-17T14:16:04.904Z,153067.56
2023-05-17T14:18:31.906Z,153081.53
2023-05-17T14:20:57.947Z,153198.56
2023-05-17T14:23:23.894Z,153252.03
2023-05-17T14:25:49.881Z,153249.50
2023-05-17T14:28:18.686Z,153260.94
2023-05-17T14:30:45.017Z,153182.03
2023-05-17T14:33:11.102Z,153178.22
2023-05-17T14:35:37.324Z,153185.81
2023-05-17T14:38:05.835Z,153180.75
2023-05-17T14:40:32.179Z,153140.06
2023-05-17T14:42:58.115Z,153250.78
2023-05-17T14:45:24.193Z,153159.13
2023-05-17T14:47:50.684Z,153229.16
2023-05-17T14:50:16.708Z,153152.75
2023-05-17T14:52:43.473Z,153174.41
2023-05-17T14:55:09.950Z,153028.09
2023-05-17T14:57:36.403Z,153034.50
2023-05-17T15:00:08.823Z,152941.63
2023-05-17T15:02:34.815Z,152866.66
2023-05-17T15:05:02.897Z,152955.59
2023-05-17T15:07:29.077Z,152949.25
2023-05-17T15:09:55.351Z,152961.97
2023-05-17T15:12:22.151Z,152927.66
2023-05-17T15:14:48.029Z,152824.69
2023-05-17T15:17:13.954Z,152796.75
2023-05-17T15:19:40.639Z,152790.38
2023-05-17T15:22:07.153Z,152696.34
2023-05-17T15:24:33.141Z,152663.25
2023-05-17T15:26:59.059Z,152733.19
2023-05-17T15:29:25.183Z,152814.53
2023-05-17T15:31:51.238Z,152833.59
2023-05-17T15:34:17.307Z,152719.22
2023-05-17T15:36:43.332Z,152668.38
2023-05-17T15:39:10.250Z,152687.44
2023-05-17T15:41:39.380Z,152709.06
2023-05-17T15:44:07.192Z,152697.63
2023-05-17T15:46:33.049Z,152640.41
2023-05-17T15:48:58.983Z,152766.22
2023-05-17T15:51:25.218Z,152825.94
2023-05-17T15:53:51.177Z,152843.75
2023-05-17T15:56:20.171Z,152895.84
2023-05-17T15:58:46.874Z,152972.16
2023-05-17T16:01:12.764Z,153039.56
2023-05-17T16:03:38.669Z,152869.19
2023-05-17T16:06:04.856Z,152886.97
2023-05-17T16:08:30.876Z,152841.19
2023-05-17T16:10:56.855Z,152833.59
2023-05-17T16:13:22.932Z,152921.31
2023-05-17T16:15:48.883Z,152866.66
2023-05-17T16:18:15.099Z,152851.41
2023-05-17T16:20:41.958Z,152778.97
2023-05-17T16:23:08.054Z,152513.41
2023-05-17T16:25:34.473Z,152369.91
2023-05-17T16:28:00.306Z,152235.41
2023-05-17T16:30:26.469Z,152236.66
2023-05-17T16:32:52.391Z,152279.78
2023-05-17T16:35:22.092Z,152369.91
2023-05-17T16:37:49.283Z,152406.72
2023-05-17T16:40:15.927Z,152443.56
2023-05-17T16:42:42.170Z,152416.94
2023-05-17T16:45:08.823Z,152367.38
2023-05-17T16:47:35.491Z,152338.16
2023-05-17T16:50:01.702Z,152199.88
2023-05-17T16:52:29.525Z,152272.19
2023-05-17T16:55:02.291Z,152388.94
2023-05-17T16:57:30.051Z,152441.03
2023-05-17T16:59:56.432Z,152381.34
2023-05-17T17:02:23.750Z,152408.03
2023-05-17T17:04:50.492Z,152406.72
2023-05-17T17:07:16.353Z,152449.91
2023-05-17T17:09:42.252Z,152554.03
2023-05-17T17:12:20.477Z,152639.16
2023-05-17T17:14:50.378Z,152571.81
2023-05-17T17:17:16.529Z,152513.41
2023-05-17T17:19:42.364Z,152455.03
2023-05-17T17:22:09.198Z,152531.19
2023-05-17T17:24:35.265Z,152541.38
2023-05-17T17:27:01.195Z,152402.91
2023-05-17T17:29:27.123Z,152396.53
2023-05-17T17:31:54.976Z,152340.69
2023-05-17T17:34:20.896Z,152311.53
2023-05-17T17:36:46.816Z,152328.03
2023-05-17T17:39:13.783Z,152267.09
2023-05-17T17:41:40.218Z,152229.03
2023-05-17T17:44:06.133Z,152145.34
2023-05-17T17:46:32.365Z,152144.00
2023-05-17T17:48:58.331Z,152080.56
2023-05-17T17:51:24.292Z,152033.63
2023-05-17T17:53:52.432Z,152046.31
2023-05-17T17:56:18.658Z,151985.47
2023-05-17T17:58:45.680Z,151909.38
2023-05-17T18:01:11.950Z,151838.44
2023-05-17T18:03:37.880Z,151891.69
2023-05-17T18:06:04.394Z,151880.25
2023-05-17T18:08:30.475Z,151856.19
2023-05-17T18:10:56.315Z,151911.94
2023-05-17T18:13:22.836Z,151906.84
2023-05-17T18:15:48.745Z,151937.28
2023-05-17T18:18:14.969Z,151911.94
2023-05-17T18:20:41.028Z,151891.69
2023-05-17T18:23:06.915Z,151859.97
2023-05-17T18:25:33.289Z,151806.75
2023-05-17T18:27:59.139Z,151819.38
2023-05-17T18:30:25.041Z,151856.19
2023-05-17T18:32:51.001Z,151804.22
2023-05-17T18:35:17.062Z,151763.63
2023-05-17T18:37:43.161Z,151719.25
2023-05-17T18:40:09.505Z,151696.47
2023-05-17T18:42:35.408Z,151688.84
2023-05-17T18:45:01.607Z,151619.16
2023-05-17T18:47:27.772Z,151629.31
2023-05-17T18:49:53.830Z,151607.78
2023-05-17T18:52:20.069Z,151562.19
2023-05-17T18:54:46.972Z,151562.19
2023-05-17T18:57:14.643Z,151544.44
2023-05-17T18:59:41.123Z,151545.72
2023-05-17T19:02:07.642Z,151515.34
2023-05-17T19:04:33.734Z,151529.25
2023-05-17T19:06:59.636Z,151483.69
2023-05-17T19:09:25.554Z,151469.75
2023-05-17T19:11:51.573Z,151435.56
2023-05-17T19:14:17.562Z,151416.56
2023-05-17T19:16:43.586Z,151414.06
2023-05-17T19:19:09.642Z,151384.91
2023-05-17T19:21:35.686Z,151381.13
2023-05-17T19:24:01.545Z,151393.81
2023-05-17T19:26:27.497Z,151381.13
2023-05-17T19:28:53.404Z,151395.06
2023-05-17T19:31:19.436Z,151387.50
2023-05-17T19:33:45.473Z,151391.28
2023-05-17T19:36:13.394Z,151352.00
2023-05-17T19:38:39.573Z,151326.66
2023-05-17T19:41:06.754Z,151297.59
2023-05-17T19:43:35.058Z,151315.31
2023-05-17T19:46:02.841Z,151344.38
2023-05-17T19:48:29.062Z,151293.75
2023-05-17T19:50:56.836Z,151268.47
2023-05-17T19:53:23.166Z,151264.69
2023-05-17T19:55:49.119Z,151301.38
2023-05-17T19:58:15.153Z,151264.69
2023-05-17T20:00:41.038Z,151259.59
2023-05-17T20:03:07.128Z,151260.84
2023-05-17T20:05:33.126Z,151230.50
2023-05-17T20:08:01.729Z,151177.38
2023-05-17T20:10:30.850Z,151164.72
2023-05-17T20:12:57.455Z,151129.31
2023-05-17T20:15:24.324Z,151154.63
2023-05-17T20:17:50.621Z,151124.25
2023-05-17T20:20:17.215Z,151135.66
2023-05-17T20:22:44.245Z,151172.34
2023-05-17T20:25:10.463Z,151164.72
2023-05-17T20:27:36.644Z,151144.47
2023-05-17T20:30:03.072Z,151169.75
2023-05-17T20:32:28.966Z,151181.16
2023-05-17T20:34:54.916Z,151190.03
2023-05-17T20:37:20.990Z,151187.47
2023-05-17T20:39:47.238Z,151139.44
2023-05-17T20:42:17.364Z,151135.66
2023-05-17T20:44:52.830Z,151112.84
2023-05-17T20:47:19.125Z,151098.94
2023-05-17T20:49:45.340Z,151097.66
2023-05-17T20:52:12.404Z,151085.06
2023-05-17T20:54:38.360Z,151066.09
2023-05-17T20:57:05.888Z,151028.16
2023-05-17T20:59:32.149Z,150995.28
2023-05-17T21:01:58.261Z,150990.19
2023-05-17T21:04:24.406Z,150967.44
2023-05-17T21:06:51.580Z,150972.50
2023-05-17T21:09:18.232Z,150956.09
2023-05-17T21:11:44.166Z,150916.88
2023-05-17T21:14:10.085Z,150928.28
2023-05-17T21:16:36.082Z,150952.28
2023-05-17T21:19:02.331Z,150947.22
2023-05-17T21:21:28.257Z,150889.09
2023-05-17T21:23:54.317Z,150905.53
2023-05-17T21:26:21.038Z,150905.53
2023-05-17T21:28:46.910Z,150916.88
2023-05-17T21:31:13.045Z,150925.75
2023-05-17T21:33:38.972Z,150906.78
2023-05-17T21:36:05.276Z,150933.31
2023-05-17T21:38:31.330Z,150954.78
2023-05-17T21:40:57.252Z,150930.78
2023-05-17T21:43:23.358Z,150928.28
2023-05-17T21:45:49.310Z,150923.22
2023-05-17T21:48:15.413Z,150908.06
2023-05-17T21:50:41.365Z,150930.78
2023-05-17T21:53:07.284Z,150911.84
2023-05-17T21:55:40.966Z,150900.44
2023-05-17T21:58:12.387Z,150870.09
2023-05-17T22:00:38.276Z,150856.19
2023-05-17T22:03:04.315Z,150857.44
2023-05-17T22:05:30.446Z,150833.44
2023-05-17T22:07:56.360Z,150777.84
2023-05-17T22:10:23.669Z,150758.91
2023-05-17T22:12:53.521Z,150768.97
2023-05-17T22:15:22.521Z,150757.66
2023-05-17T22:17:52.804Z,150743.75
2023-05-17T22:20:22.736Z,150742.47
2023-05-17T22:22:49.011Z,150782.91
2023-05-17T22:25:15.812Z,150732.34
2023-05-17T22:27:42.959Z,150720.97
2023-05-17T22:30:09.015Z,150694.47
2023-05-17T22:32:36.617Z,150731.09
2023-05-17T22:35:03.210Z,150700.75
2023-05-17T22:37:29.598Z,150702.03
2023-05-17T22:39:55.690Z,150700.75
2023-05-17T22:42:21.899Z,150694.47
2023-05-17T22:44:47.769Z,150714.66
2023-05-17T22:47:14.005Z,150750.03
2023-05-17T22:49:40.072Z,150781.63
2023-05-17T22:52:07.089Z,150780.38
2023-05-17T22:54:36.600Z,150753.81
2023-05-17T22:57:03.597Z,150702.03
2023-05-17T22:59:31.203Z,150728.56
2023-05-17T23:01:57.193Z,150726.06
2023-05-17T23:04:25.380Z,150704.59
2023-05-17T23:06:53.296Z,150714.66
2023-05-17T23:09:21.162Z,150707.09
2023-05-17T23:11:49.194Z,150652.78
2023-05-17T23:14:16.705Z,150674.25
2023-05-17T23:16:42.830Z,150678.03
2023-05-17T23:19:09.125Z,150638.91
2023-05-17T23:21:35.363Z,150626.25
2023-05-17T23:24:01.258Z,150574.47
2023-05-17T23:26:27.970Z,150582.06
2023-05-17T23:28:54.230Z,150622.47
2023-05-17T23:31:21.068Z,150616.16
2023-05-17T23:33:47.017Z,150625.00
2023-05-17T23:36:13.448Z,150578.28
2023-05-17T23:38:39.322Z,150561.88
2023-05-17T23:41:06.754Z,150579.56
2023-05-17T23:43:33.856Z,150587.13
2023-05-17T23:46:00.736Z,150606.06
2023-05-17T23:48:27.740Z,150601.00
2023-05-17T23:50:53.742Z,150593.41
2023-05-17T23:53:19.705Z,150617.44
2023-05-17T23:55:45.892Z,150608.56
2023-05-17T23:58:11.714Z,150571.94
